Time;durP1;ratioP1;P1;durP2;ratioP2;P2;SDS_P1;SDS_P2;PMS_P1;PMS_P2;Temp;Humidity;BMP_temperature;BMP_pressure;BME280_temperature;BME280_humidity;BME280_pressure;Samples;Min_cycle;Max_cycle;Signal;HPM_P1;HPM_P2
2022/03/12 00:01:18;;;;;;;6.28;2.17;;;;;;;;;;6066254;23;20026;-47
2022/03/12 00:03:44;;;;;;;4.97;1.77;;;;;;;;;;6063033;23;20014;-48
2022/03/12 00:06:09;;;;;;;14.73;1.80;;;;;;;;;;6063759;23;20018;-48
2022/03/12 00:08:44;;;;;;;13.68;2.90;;;;;;;;;;6058722;23;20022;-46
2022/03/12 00:11:11;;;;;;;9.13;1.83;;;;;;;;;;6003672;23;20109;-49
2022/03/12 00:13:36;;;;;;;5.00;1.80;;;;;;;;;;6002877;23;20022;-50
2022/03/12 00:16:01;;;;;;;9.70;2.65;;;;;;;;;;6003014;23;20011;-48
2022/03/12 00:18:30;;;;;;;8.73;1.75;;;;;;;;;;6005739;23;20035;-49
2022/03/12 00:20:56;;;;;;;2.65;1.63;;;;;;;;;;6001322;23;20016;-49
2022/03/12 00:23:22;;;;;;;2.53;1.20;;;;;;;;;;6005290;23;20529;-47
2022/03/12 00:25:48;;;;;;;7.78;1.60;;;;;;;;;;6002718;23;20023;-46
2022/03/12 00:28:15;;;;;;;7.15;2.10;;;;;;;;;;6001898;23;20397;-51
2022/03/12 00:30:50;;;;;;;9.38;1.33;;;;;;;;;;6003652;23;20016;-49
2022/03/12 00:33:17;;;;;;;5.88;2.03;;;;;;;;;;6004992;23;20069;-47
2022/03/12 00:35:43;;;;;;;11.60;2.42;;;;;;;;;;6003394;23;20547;-47
2022/03/12 00:38:08;;;;;;;11.57;3.17;;;;;;;;;;6006613;23;20032;-47
2022/03/12 00:40:37;;;;;;;5.63;1.92;;;;;;;;;;6003148;23;20024;-50
2022/03/12 00:43:03;;;;;;;7.93;2.70;;;;;;;;;;6026816;23;20064;-48
2022/03/12 00:45:29;;;;;;;10.98;2.60;;;;;;;;;;6003579;23;20020;-50
2022/03/12 00:47:54;;;;;;;5.35;2.20;;;;;;;;;;6006766;23;20024;-49
2022/03/12 00:50:19;;;;;;;12.65;1.98;;;;;;;;;;6003433;23;20012;-46
2022/03/12 00:52:44;;;;;;;10.35;2.60;;;;;;;;;;6005615;23;20058;-48
2022/03/12 00:55:10;;;;;;;7.20;2.58;;;;;;;;;;5999336;23;20035;-47
2022/03/12 00:57:35;;;;;;;5.97;1.83;;;;;;;;;;6000330;23;20039;-47
2022/03/12 01:00:01;;;;;;;18.08;5.13;;;;;;;;;;6000350;23;20027;-53
2022/03/12 01:02:26;;;;;;;8.90;2.30;;;;;;;;;;6007429;23;20015;-46
2022/03/12 01:04:52;;;;;;;9.25;2.13;;;;;;;;;;6007315;23;20530;-50
2022/03/12 01:07:17;;;;;;;5.20;1.90;;;;;;;;;;6008996;23;20068;-49
2022/03/12 01:09:42;;;;;;;9.32;1.98;;;;;;;;;;6033737;23;20594;-50
2022/03/12 01:12:08;;;;;;;8.10;2.88;;;;;;;;;;6067107;23;20059;-47
2022/03/12 01:14:38;;;;;;;6.68;1.50;;;;;;;;;;6065361;23;20015;-52
2022/03/12 01:17:03;;;;;;;4.63;1.67;;;;;;;;;;6066738;23;20030;-47
2022/03/12 01:19:28;;;;;;;7.55;1.73;;;;;;;;;;6065620;23;20047;-50
2022/03/12 01:21:53;;;;;;;4.75;1.48;;;;;;;;;;6067316;23;20015;-50
2022/03/12 01:24:19;;;;;;;11.52;1.52;;;;;;;;;;6065460;23;20011;-51
2022/03/12 01:26:44;;;;;;;6.65;2.75;;;;;;;;;;6068059;23;20529;-47
2022/03/12 01:29:10;;;;;;;6.80;1.95;;;;;;;;;;6064610;23;20310;-48
2022/03/12 01:31:35;;;;;;;5.97;1.60;;;;;;;;;;6066341;23;20062;-49
2022/03/12 01:34:01;;;;;;;4.82;2.40;;;;;;;;;;6064058;23;20015;-48
2022/03/12 01:36:27;;;;;;;11.85;1.63;;;;;;;;;;6066842;23;20023;-52
2022/03/12 01:38:54;;;;;;;4.93;1.48;;;;;;;;;;6065803;23;20065;-49
2022/03/12 01:41:24;;;;;;;4.95;1.23;;;;;;;;;;6067981;23;20026;-51
2022/03/12 01:43:51;;;;;;;5.20;1.23;;;;;;;;;;6065483;23;20035;-52
2022/03/12 01:46:17;;;;;;;1.48;0.45;;;;;;;;;;6066591;23;20019;-47
2022/03/12 01:48:45;;;;;;;1.00;0.45;;;;;;;;;;6039966;23;20926;-50
2022/03/12 01:51:11;;;;;;;3.35;0.52;;;;;;;;;;6066644;23;20211;-48
2022/03/12 01:53:36;;;;;;;6.88;0.52;;;;;;;;;;6064614;23;20074;-47
2022/03/12 01:56:02;;;;;;;3.25;0.50;;;;;;;;;;6067122;23;20019;-49
2022/03/12 01:58:27;;;;;;;5.80;0.40;;;;;;;;;;6065390;23;20031;-49
2022/03/12 02:00:53;;;;;;;0.30;0.30;;;;;;;;;;6067157;23;20011;-51
2022/03/12 02:03:23;;;;;;;0.95;0.20;;;;;;;;;;6065023;23;20022;-50
2022/03/12 02:05:49;;;;;;;1.30;0.40;;;;;;;;;;6067926;23;20046;-50
2022/03/12 02:08:14;;;;;;;0.73;0.30;;;;;;;;;;6064220;23;20023;-49
2022/03/12 02:10:43;;;;;;;0.55;0.43;;;;;;;;;;6065816;23;20106;-48
2022/03/12 02:13:09;;;;;;;0.20;0.20;;;;;;;;;;6065480;23;20015;-50
2022/03/12 02:15:34;;;;;;;0.50;0.30;;;;;;;;;;6066311;23;20022;-50
2022/03/12 02:18:00;;;;;;;1.38;0.40;;;;;;;;;;6064688;23;20023;-50
2022/03/12 02:20:25;;;;;;;0.30;0.30;;;;;;;;;;6066603;23;20042;-48
2022/03/12 02:22:54;;;;;;;3.55;0.73;;;;;;;;;;6065241;23;20374;-49
2022/03/12 02:25:27;;;;;;;0.80;0.20;;;;;;;;;;6066371;23;20050;-53
2022/03/12 02:27:53;;;;;;;1.80;0.40;;;;;;;;;;6066145;23;20015;-48
2022/03/12 02:30:19;;;;;;;1.00;0.40;;;;;;;;;;6066316;23;20025;-52
2022/03/12 02:32:45;;;;;;;3.40;0.57;;;;;;;;;;6064125;23;20018;-49
2022/03/12 02:35:12;;;;;;;6.40;0.80;;;;;;;;;;6066283;23;20019;-48
2022/03/12 02:37:40;;;;;;;0.98;0.75;;;;;;;;;;6064309;23;20022;-48
2022/03/12 02:40:07;;;;;;;2.47;0.63;;;;;;;;;;6065128;23;20954;-48
2022/03/12 02:42:36;;;;;;;4.35;1.50;;;;;;;;;;6065575;23;20015;-52
2022/03/12 02:45:02;;;;;;;;;;;;;;;;;;6064137;23;20015;-49
2022/03/12 02:47:30;;;;;;;2.28;0.60;;;;;;;;;;6065798;23;20063;-48
2022/03/12 02:49:58;;;;;;;3.88;0.80;;;;;;;;;;6065384;23;20019;-52
2022/03/12 02:52:26;;;;;;;2.25;0.50;;;;;;;;;;6065125;23;20085;-48
2022/03/12 02:54:52;;;;;;;2.53;0.75;;;;;;;;;;6065216;23;20015;-48
2022/03/12 02:57:18;;;;;;;2.50;0.80;;;;;;;;;;6066378;23;20031;-51
2022/03/12 02:59:44;;;;;;;0.70;0.30;;;;;;;;;;6064724;23;20753;-51
2022/03/12 03:02:10;;;;;;;2.22;0.60;;;;;;;;;;6066403;23;20046;-52
2022/03/12 03:04:36;;;;;;;0.65;0.50;;;;;;;;;;6064631;23;20071;-49
2022/03/12 03:07:05;;;;;;;1.40;0.50;;;;;;;;;;6065749;23;20019;-49
2022/03/12 03:09:30;;;;;;;3.07;0.60;;;;;;;;;;6064391;23;20018;-52
2022/03/12 03:11:57;;;;;;;0.93;0.45;;;;;;;;;;6066356;23;20041;-52
2022/03/12 03:14:26;;;;;;;2.13;0.60;;;;;;;;;;6064638;23;20018;-49
2022/03/12 03:16:52;;;;;;;0.63;0.43;;;;;;;;;;6066197;23;20080;-50
2022/03/12 03:19:17;;;;;;;2.97;0.43;;;;;;;;;;6063301;23;20110;-52
2022/03/12 03:21:43;;;;;;;1.35;0.43;;;;;;;;;;6066432;23;20003;-52
2022/03/12 03:24:08;;;;;;;1.05;0.90;;;;;;;;;;6063963;23;20023;-50
2022/03/12 03:26:33;;;;;;;3.33;0.77;;;;;;;;;;6066812;23;20065;-50
2022/03/12 03:28:58;;;;;;;0.55;0.30;;;;;;;;;;6064016;23;20042;-49
2022/03/12 03:31:24;;;;;;;1.80;0.50;;;;;;;;;;6064998;23;20093;-48
2022/03/12 03:33:50;;;;;;;2.15;0.47;;;;;;;;;;6065112;23;20035;-49
2022/03/12 03:36:15;;;;;;;2.80;1.00;;;;;;;;;;6065236;23;20405;-47
2022/03/12 03:38:40;;;;;;;6.00;0.52;;;;;;;;;;6040442;23;20022;-49
2022/03/12 03:41:06;;;;;;;4.47;0.90;;;;;;;;;;6065408;23;20041;-48
2022/03/12 03:43:31;;;;;;;9.05;1.13;;;;;;;;;;6062511;23;20038;-49
2022/03/12 03:45:56;;;;;;;6.70;1.20;;;;;;;;;;6064767;23;20030;-48
2022/03/12 03:48:23;;;;;;;2.25;0.50;;;;;;;;;;6063824;23;20026;-47
2022/03/12 03:50:49;;;;;;;0.80;0.40;;;;;;;;;;6067214;23;20113;-49
2022/03/12 03:53:19;;;;;;;6.05;0.80;;;;;;;;;;6061741;23;20026;-47
2022/03/12 03:55:45;;;;;;;0.68;0.43;;;;;;;;;;6063190;23;20435;-47
2022/03/12 03:58:14;;;;;;;1.55;0.50;;;;;;;;;;6064972;23;20051;-47
2022/03/12 04:00:44;;;;;;;3.13;0.63;;;;;;;;;;6064605;23;20015;-47
2022/03/12 04:03:11;;;;;;;2.35;0.57;;;;;;;;;;6066165;23;20022;-50
2022/03/12 04:05:37;;;;;;;2.05;0.47;;;;;;;;;;6064979;23;20043;-49
2022/03/12 04:08:04;;;;;;;2.03;0.30;;;;;;;;;;6057387;23;20014;-50
2022/03/12 04:10:29;;;;;;;2.25;0.50;;;;;;;;;;6065232;23;20026;-49
2022/03/12 04:12:55;;;;;;;2.25;0.65;;;;;;;;;;6064508;23;20019;-47
2022/03/12 04:15:21;;;;;;;0.32;0.20;;;;;;;;;;6064982;23;20180;-47
2022/03/12 04:17:50;;;;;;;0.40;0.40;;;;;;;;;;6064314;23;20553;-50
2022/03/12 04:20:18;;;;;;;3.95;1.10;;;;;;;;;;6065153;23;20089;-50
2022/03/12 04:22:43;;;;;;;1.00;0.70;;;;;;;;;;6064036;23;20017;-47
2022/03/12 04:25:12;;;;;;;2.20;0.30;;;;;;;;;;6064478;23;20039;-50
2022/03/12 04:27:38;;;;;;;1.65;0.30;;;;;;;;;;6062249;23;20022;-50
2022/03/12 04:30:04;;;;;;;3.22;0.60;;;;;;;;;;6063007;23;20011;-46
2022/03/12 04:32:30;;;;;;;2.25;0.45;;;;;;;;;;6063576;23;20022;-47
2022/03/12 04:34:55;;;;;;;0.85;0.50;;;;;;;;;;6065192;23;20517;-49
2022/03/12 04:37:20;;;;;;;0.47;0.47;;;;;;;;;;6037913;23;20051;-51
2022/03/12 04:39:48;;;;;;;0.75;0.40;;;;;;;;;;6066136;23;20022;-48
2022/03/12 04:42:16;;;;;;;1.13;0.40;;;;;;;;;;6039209;23;20475;-50
2022/03/12 04:44:42;;;;;;;3.53;0.70;;;;;;;;;;6065059;23;20015;-49
2022/03/12 04:47:09;;;;;;;5.72;0.60;;;;;;;;;;6066582;23;20038;-48
2022/03/12 04:49:34;;;;;;;0.75;0.40;;;;;;;;;;6065531;23;20075;-50
2022/03/12 04:52:00;;;;;;;8.68;1.45;;;;;;;;;;6066927;23;20019;-47
2022/03/12 04:54:30;;;;;;;1.75;0.70;;;;;;;;;;6065268;23;20456;-49
2022/03/12 04:56:56;;;;;;;4.05;0.52;;;;;;;;;;6066398;23;20026;-47
2022/03/12 04:59:22;;;;;;;2.47;0.60;;;;;;;;;;6063214;23;20019;-50
2022/03/12 05:01:47;;;;;;;1.48;0.60;;;;;;;;;;6067046;23;19999;-52
2022/03/12 05:04:12;;;;;;;3.03;0.73;;;;;;;;;;6065971;23;20019;-52
2022/03/12 05:06:38;;;;;;;1.90;0.55;;;;;;;;;;6066121;23;20022;-51
2022/03/12 05:09:05;;;;;;;2.92;0.38;;;;;;;;;;6066943;23;20030;-49
2022/03/12 05:11:33;;;;;;;4.90;0.63;;;;;;;;;;6065480;23;20018;-49
2022/03/12 05:13:59;;;;;;;2.17;0.75;;;;;;;;;;6067460;23;20495;-48
2022/03/12 05:16:25;;;;;;;0.60;0.57;;;;;;;;;;6065599;23;20050;-47
2022/03/12 05:18:50;;;;;;;3.45;0.70;;;;;;;;;;6064908;23;20029;-48
2022/03/12 05:21:16;;;;;;;1.58;0.50;;;;;;;;;;6066680;23;20015;-49
2022/03/12 05:23:41;;;;;;;1.65;0.75;;;;;;;;;;6065944;23;20010;-49
2022/03/12 05:26:06;;;;;;;0.93;0.40;;;;;;;;;;6066422;23;20102;-47
2022/03/12 05:28:32;;;;;;;0.65;0.38;;;;;;;;;;6064765;23;20015;-50
2022/03/12 05:30:59;;;;;;;3.03;0.68;;;;;;;;;;6066653;23;20023;-47
2022/03/12 05:33:25;;;;;;;1.45;0.47;;;;;;;;;;6064001;23;20541;-47
2022/03/12 05:35:57;;;;;;;2.55;0.60;;;;;;;;;;6041028;23;20010;-49
2022/03/12 05:38:23;;;;;;;1.55;0.85;;;;;;;;;;6064905;23;20027;-51
2022/03/12 05:40:50;;;;;;;0.75;0.43;;;;;;;;;;6067005;23;20017;-48
2022/03/12 05:43:15;;;;;;;2.03;0.70;;;;;;;;;;6064960;23;20861;-49
2022/03/12 05:45:47;;;;;;;2.05;0.73;;;;;;;;;;6066838;23;20039;-50
2022/03/12 05:48:14;;;;;;;1.27;0.70;;;;;;;;;;6064838;23;20022;-48
2022/03/12 05:50:39;;;;;;;2.58;0.60;;;;;;;;;;6066803;23;20006;-52
2022/03/12 05:53:08;;;;;;;3.97;1.10;;;;;;;;;;6037617;23;20015;-49
2022/03/12 05:55:35;;;;;;;9.10;0.90;;;;;;;;;;6065541;23;20437;-49
2022/03/12 05:58:00;;;;;;;2.88;0.85;;;;;;;;;;6065080;23;20027;-49
2022/03/12 06:00:25;;;;;;;4.80;1.33;;;;;;;;;;6066297;23;20074;-47
2022/03/12 06:02:51;;;;;;;1.85;0.80;;;;;;;;;;6066114;23;20015;-49
2022/03/12 06:05:20;;;;;;;3.65;1.00;;;;;;;;;;6064957;23;20019;-48
2022/03/12 06:07:46;;;;;;;3.53;1.25;;;;;;;;;;6067901;23;20524;-48
2022/03/12 06:10:15;;;;;;;4.35;0.90;;;;;;;;;;6065111;23;20031;-50
2022/03/12 06:12:43;;;;;;;8.52;0.98;;;;;;;;;;6065301;23;20039;-50
2022/03/12 06:15:09;;;;;;;3.53;0.75;;;;;;;;;;6065786;23;20030;-49
2022/03/12 06:17:35;;;;;;;5.72;1.23;;;;;;;;;;6065755;23;20611;-49
2022/03/12 06:20:00;;;;;;;1.95;0.80;;;;;;;;;;6065557;23;20047;-50
2022/03/12 06:22:25;;;;;;;3.30;1.50;;;;;;;;;;6037582;23;20015;-47
2022/03/12 06:24:51;;;;;;;5.78;1.10;;;;;;;;;;6066524;23;20097;-48
2022/03/12 06:27:21;;;;;;;7.22;1.48;;;;;;;;;;6064137;23;20019;-50
2022/03/12 06:29:46;;;;;;;7.05;1.00;;;;;;;;;;6066170;23;20011;-50
2022/03/12 06:32:13;;;;;;;2.45;1.83;;;;;;;;;;6063993;23;20015;-48
2022/03/12 06:34:39;;;;;;;6.50;1.92;;;;;;;;;;6065957;23;20487;-49
2022/03/12 06:37:04;;;;;;;3.92;0.80;;;;;;;;;;6062083;23;20011;-47
2022/03/12 06:39:29;;;;;;;5.03;1.30;;;;;;;;;;6064886;23;20039;-50
2022/03/12 06:41:56;;;;;;;2.20;1.58;;;;;;;;;;6063571;23;20030;-51
2022/03/12 06:44:24;;;;;;;2.47;1.52;;;;;;;;;;6064818;23;20015;-52
2022/03/12 06:46:50;;;;;;;14.52;3.35;;;;;;;;;;6062936;23;20055;-51
2022/03/12 06:49:16;;;;;;;5.00;1.42;;;;;;;;;;6065512;23;20025;-49
2022/03/12 06:51:42;;;;;;;14.30;1.83;;;;;;;;;;6064347;23;20322;-52
2022/03/12 06:54:07;;;;;;;7.60;2.25;;;;;;;;;;6066403;23;20313;-47
2022/03/12 06:56:34;;;;;;;8.20;1.80;;;;;;;;;;6038099;23;20097;-48
2022/03/12 06:58:59;;;;;;;5.15;1.80;;;;;;;;;;6040404;23;20051;-50
2022/03/12 07:01:24;;;;;;;10.48;2.65;;;;;;;;;;6063882;23;20015;-48
2022/03/12 07:03:50;;;;;;;10.68;2.70;;;;;;;;;;6065047;23;20022;-49
2022/03/12 07:06:15;;;;;;;10.55;2.67;;;;;;;;;;6065602;23;20018;-47
2022/03/12 07:08:40;;;;;;;5.15;1.50;;;;;;;;;;6065670;23;20022;-49
2022/03/12 07:11:06;;;;;;;13.57;3.60;;;;;;;;;;6065062;23;20366;-49
2022/03/12 07:13:31;;;;;;;17.42;4.45;;;;;;;;;;6039724;23;20026;-49
2022/03/12 07:15:57;;;;;;;12.40;2.15;;;;;;;;;;6065344;23;20022;-50
2022/03/12 07:18:22;;;;;;;13.10;2.42;;;;;;;;;;6065417;23;20030;-50
2022/03/12 07:20:48;;;;;;;29.90;3.28;;;;;;;;;;6063272;23;20011;-49
2022/03/12 07:23:13;;;;;;;9.80;3.33;;;;;;;;;;6065776;23;20015;-47
2022/03/12 07:25:39;;;;;;;7.13;2.05;;;;;;;;;;6063483;23;20015;-49
2022/03/12 07:28:04;;;;;;;7.03;2.08;;;;;;;;;;6065836;23;20023;-48
2022/03/12 07:30:30;;;;;;;5.63;2.92;;;;;;;;;;6060900;23;20045;-48
2022/03/12 07:32:56;;;;;;;9.52;2.38;;;;;;;;;;6063116;23;20011;-51
2022/03/12 07:35:21;;;;;;;9.60;2.28;;;;;;;;;;6062842;23;20034;-47
2022/03/12 07:37:46;;;;;;;6.82;1.65;;;;;;;;;;6064684;23;20425;-47
2022/03/12 07:40:13;;;;;;;14.27;2.70;;;;;;;;;;6064309;23;20501;-47
2022/03/12 07:42:38;;;;;;;3.03;1.63;;;;;;;;;;6063240;23;20014;-49
2022/03/12 07:45:04;;;;;;;12.35;2.65;;;;;;;;;;6063543;23;20022;-50
2022/03/12 07:47:29;;;;;;;9.50;1.48;;;;;;;;;;6063541;23;20026;-48
2022/03/12 07:49:54;;;;;;;8.35;3.15;;;;;;;;;;6064618;23;20006;-52
2022/03/12 07:52:19;;;;;;;8.35;2.70;;;;;;;;;;6062659;23;20045;-47
2022/03/12 07:54:45;;;;;;;7.88;1.73;;;;;;;;;;6064203;23;20038;-47
2022/03/12 07:57:10;;;;;;;6.28;1.88;;;;;;;;;;6063839;23;20015;-50
2022/03/12 07:59:36;;;;;;;12.40;1.90;;;;;;;;;;6038074;23;20011;-52
2022/03/12 08:02:02;;;;;;;6.45;1.55;;;;;;;;;;6063078;23;20015;-50
2022/03/12 08:04:30;;;;;;;5.07;1.13;;;;;;;;;;6060193;23;20015;-49
2022/03/12 08:06:59;;;;;;;8.40;1.48;;;;;;;;;;6065788;23;20018;-49
2022/03/12 08:09:24;;;;;;;7.18;1.83;;;;;;;;;;6063260;23;20043;-51
2022/03/12 08:11:49;;;;;;;9.68;1.60;;;;;;;;;;6065481;23;20022;-52
2022/03/12 08:14:16;;;;;;;10.95;2.05;;;;;;;;;;6063777;23;20011;-48
2022/03/12 08:16:41;;;;;;;11.20;2.17;;;;;;;;;;6063636;23;20043;-53
2022/03/12 08:19:08;;;;;;;9.65;2.05;;;;;;;;;;6066412;23;20143;-53
2022/03/12 08:21:34;;;;;;;7.70;2.38;;;;;;;;;;6066123;23;20038;-48
2022/03/12 08:24:01;;;;;;;5.22;1.90;;;;;;;;;;6067624;23;20022;-48
2022/03/12 08:26:27;;;;;;;8.70;1.88;;;;;;;;;;6065021;23;20066;-49
2022/03/12 08:28:53;;;;;;;11.75;2.42;;;;;;;;;;6042274;23;20018;-49
2022/03/12 08:31:19;;;;;;;11.75;2.15;;;;;;;;;;6064607;23;20519;-48
2022/03/12 08:33:44;;;;;;;8.18;2.53;;;;;;;;;;6069063;23;20026;-48
2022/03/12 08:36:09;;;;;;;12.35;2.58;;;;;;;;;;6065665;23;20029;-48
2022/03/12 08:38:35;;;;;;;7.90;1.85;;;;;;;;;;6067590;23;20571;-49
2022/03/12 08:41:01;;;;;;;8.75;2.35;;;;;;;;;;6065079;23;20019;-50
2022/03/12 08:43:27;;;;;;;7.35;2.40;;;;;;;;;;6067647;23;20010;-52
2022/03/12 08:45:52;;;;;;;27.77;3.17;;;;;;;;;;6064865;23;20468;-48
2022/03/12 08:48:17;;;;;;;12.25;2.40;;;;;;;;;;6067330;23;20488;-49
2022/03/12 08:50:47;;;;;;;6.65;2.35;;;;;;;;;;6063742;23;20030;-48
2022/03/12 08:53:12;;;;;;;14.90;2.78;;;;;;;;;;6066403;23;20019;-49
2022/03/12 08:55:38;;;;;;;6.53;2.35;;;;;;;;;;6064805;23;20026;-50
2022/03/12 08:58:04;;;;;;;4.15;2.40;;;;;;;;;;6041299;23;20038;-51
2022/03/12 09:00:29;;;;;;;7.50;2.83;;;;;;;;;;6064109;23;20011;-53
2022/03/12 09:02:54;;;;;;;7.70;1.95;;;;;;;;;;6066571;23;20516;-49
2022/03/12 09:05:21;;;;;;;9.52;1.98;;;;;;;;;;6065076;23;20023;-51
2022/03/12 09:07:48;;;;;;;4.82;1.83;;;;;;;;;;6067846;23;20091;-48
2022/03/12 09:10:14;;;;;;;4.78;1.27;;;;;;;;;;6064850;23;20027;-51
2022/03/12 09:12:40;;;;;;;11.15;2.17;;;;;;;;;;6067264;23;20025;-51
2022/03/12 09:15:06;;;;;;;6.00;1.70;;;;;;;;;;6065210;23;20019;-49
2022/03/12 09:17:32;;;;;;;5.88;1.33;;;;;;;;;;6065639;23;20047;-50
2022/03/12 09:19:57;;;;;;;8.40;1.73;;;;;;;;;;6067409;23;20019;-48
2022/03/12 09:22:23;;;;;;;7.88;1.95;;;;;;;;;;6065284;23;20169;-50
2022/03/12 09:24:48;;;;;;;7.07;1.52;;;;;;;;;;6067193;23;20022;-50
2022/03/12 09:27:13;;;;;;;6.75;2.25;;;;;;;;;;6064973;23;20020;-52
2022/03/12 09:29:39;;;;;;;9.02;1.38;;;;;;;;;;6061628;23;20623;-50
2022/03/12 09:32:05;;;;;;;8.07;2.42;;;;;;;;;;6064858;23;20027;-51
2022/03/12 09:34:30;;;;;;;8.52;2.08;;;;;;;;;;6066545;23;20015;-50
2022/03/12 09:36:55;;;;;;;7.88;1.60;;;;;;;;;;6062876;23;20435;-51
2022/03/12 09:39:21;;;;;;;7.30;2.35;;;;;;;;;;6065937;23;20019;-48
2022/03/12 09:41:47;;;;;;;8.07;4.00;;;;;;;;;;6065934;23;20070;-48
2022/03/12 09:44:12;;;;;;;11.20;2.63;;;;;;;;;;6068433;23;20046;-48
2022/03/12 09:46:37;;;;;;;7.50;1.60;;;;;;;;;;6064302;23;20626;-47
2022/03/12 09:49:04;;;;;;;9.98;2.22;;;;;;;;;;6042137;23;20129;-47
2022/03/12 09:51:31;;;;;;;11.43;1.75;;;;;;;;;;6064089;23;20022;-50
2022/03/12 09:53:57;;;;;;;12.10;1.88;;;;;;;;;;6067792;23;20019;-47
2022/03/12 09:56:23;;;;;;;11.52;2.60;;;;;;;;;;6065274;23;20021;-49
2022/03/12 09:58:48;;;;;;;12.70;2.50;;;;;;;;;;6067998;23;20018;-47
2022/03/12 10:01:13;;;;;;;10.65;2.15;;;;;;;;;;6039237;23;20444;-47
2022/03/12 10:03:38;;;;;;;10.23;1.63;;;;;;;;;;6066150;23;20018;-46
2022/03/12 10:06:05;;;;;;;8.27;1.50;;;;;;;;;;6064730;23;20026;-46
2022/03/12 10:08:31;;;;;;;5.88;1.40;;;;;;;;;;6066070;23;20034;-47
2022/03/12 10:10:56;;;;;;;5.07;2.47;;;;;;;;;;6064115;23;20034;-46
2022/03/12 10:13:21;;;;;;;5.80;1.60;;;;;;;;;;6065197;23;20007;-46
2022/03/12 10:15:46;;;;;;;6.40;2.65;;;;;;;;;;6058706;23;20627;-47
2022/03/12 10:18:12;;;;;;;3.85;1.40;;;;;;;;;;6062125;23;20049;-46
2022/03/12 10:20:39;;;;;;;5.72;1.27;;;;;;;;;;6061436;23;20070;-49
2022/03/12 10:23:05;;;;;;;7.40;1.60;;;;;;;;;;6062504;23;20025;-49
2022/03/12 10:25:31;;;;;;;6.53;1.67;;;;;;;;;;6060253;23;20019;-50
2022/03/12 10:27:57;;;;;;;4.28;1.50;;;;;;;;;;6062659;23;20019;-48
2022/03/12 10:30:22;;;;;;;8.85;1.55;;;;;;;;;;6060861;23;20026;-46
2022/03/12 10:32:49;;;;;;;7.40;1.35;;;;;;;;;;6062514;23;20015;-51
2022/03/12 10:35:17;;;;;;;17.50;4.25;;;;;;;;;;6060361;23;20022;-48
2022/03/12 10:37:43;;;;;;;3.78;2.00;;;;;;;;;;6061641;23;20023;-50
2022/03/12 10:40:11;;;;;;;8.00;1.38;;;;;;;;;;6060800;23;20058;-48
2022/03/12 10:42:37;;;;;;;9.43;1.35;;;;;;;;;;6063272;23;20043;-48
2022/03/12 10:45:07;;;;;;;10.32;2.33;;;;;;;;;;6060898;23;20050;-46
2022/03/12 10:47:36;;;;;;;;;;;;;;;;;;6060701;23;20015;-48
2022/03/12 10:50:04;;;;;;;8.32;2.08;;;;;;;;;;6059712;23;19920;-49
2022/03/12 10:52:30;;;;;;;5.43;1.80;;;;;;;;;;6061895;23;20015;-48
2022/03/12 10:54:55;;;;;;;3.00;1.52;;;;;;;;;;6058260;23;20510;-49
2022/03/12 10:57:21;;;;;;;8.15;2.55;;;;;;;;;;6062128;23;20019;-49
2022/03/12 10:59:51;;;;;;;15.65;2.15;;;;;;;;;;6054921;23;20070;-49
2022/03/12 11:02:16;;;;;;;10.30;2.25;;;;;;;;;;6058987;23;20074;-50
2022/03/12 11:04:42;;;;;;;3.13;1.52;;;;;;;;;;6065259;23;20022;-47
2022/03/12 11:07:26;;;;;;;4.88;1.10;;;;;;;;;;6040364;23;20879;-50
2022/03/12 11:09:53;;;;;;;4.30;1.00;;;;;;;;;;6038246;23;20023;-48
2022/03/12 11:12:35;;;;;;;2.90;1.20;;;;;;;;;;6065268;23;20026;-49
2022/03/12 11:15:15;;;;;;;4.13;1.45;;;;;;;;;;6065024;23;20038;-47
2022/03/12 11:17:44;;;;;;;2.90;0.90;;;;;;;;;;6058762;23;20050;-47
2022/03/12 11:20:36;;;;;;;11.43;1.73;;;;;;;;;;6065483;23;20236;-50
2022/03/12 11:23:12;;;;;;;4.47;1.05;;;;;;;;;;6058409;23;20021;-49
2022/03/12 11:25:54;;;;;;;4.57;1.13;;;;;;;;;;6066676;23;20011;-52
2022/03/12 11:28:20;;;;;;;2.92;0.82;;;;;;;;;;6061498;23;20022;-48
2022/03/12 11:30:45;;;;;;;9.52;1.73;;;;;;;;;;6041002;23;20011;-47
2022/03/12 11:33:11;;;;;;;6.05;1.10;;;;;;;;;;6064983;23;20026;-49
2022/03/12 11:35:37;;;;;;;6.45;1.08;;;;;;;;;;6065166;23;20393;-47
2022/03/12 11:38:22;;;;;;;3.83;1.52;;;;;;;;;;6066638;23;20046;-49
2022/03/12 11:40:49;;;;;;;3.28;0.88;;;;;;;;;;6062073;23;20425;-48
2022/03/12 11:43:37;;;;;;;1.50;0.70;;;;;;;;;;6049736;23;20029;-49
2022/03/12 11:46:04;;;;;;;3.15;1.02;;;;;;;;;;6054467;23;20047;-46
2022/03/12 11:48:34;;;;;;;1.58;0.80;;;;;;;;;;6059216;23;20317;-47
2022/03/12 11:51:07;;;;;;;3.05;0.80;;;;;;;;;;6065082;23;20019;-49
2022/03/12 11:53:36;;;;;;;3.10;0.98;;;;;;;;;;6062291;23;20010;-52
2022/03/12 11:56:02;;;;;;;4.00;1.20;;;;;;;;;;6040277;23;20010;-48
2022/03/12 11:58:27;;;;;;;7.47;1.25;;;;;;;;;;6063050;23;20158;-48
2022/03/12 12:00:53;;;;;;;6.63;1.15;;;;;;;;;;6065919;23;20502;-48
2022/03/12 12:03:18;;;;;;;6.40;2.08;;;;;;;;;;6062043;23;20825;-48
2022/03/12 12:05:45;;;;;;;3.83;1.58;;;;;;;;;;6063068;23;20607;-48
2022/03/12 12:08:16;;;;;;;3.22;0.73;;;;;;;;;;6063141;23;20026;-48
2022/03/12 12:10:42;;;;;;;5.30;1.13;;;;;;;;;;6064546;23;20027;-48
2022/03/12 12:13:08;;;;;;;7.43;1.25;;;;;;;;;;6027228;23;20290;-51
2022/03/12 12:15:36;;;;;;;3.15;0.60;;;;;;;;;;6065068;23;20396;-48
2022/03/12 12:18:02;;;;;;;4.47;1.25;;;;;;;;;;6061796;23;20174;-47
2022/03/12 12:20:29;;;;;;;4.57;1.00;;;;;;;;;;6057277;23;20023;-47
2022/03/12 12:22:55;;;;;;;3.63;1.00;;;;;;;;;;6056510;23;20010;-46
2022/03/12 12:25:20;;;;;;;9.07;1.35;;;;;;;;;;6057068;23;20071;-48
2022/03/12 12:27:47;;;;;;;3.92;1.52;;;;;;;;;;6057622;23;20022;-47
2022/03/12 12:30:38;;;;;;;2.65;1.60;;;;;;;;;;6058342;23;20018;-47
2022/03/12 12:33:15;;;;;;;3.63;1.05;;;;;;;;;;6065737;23;20103;-50
2022/03/12 12:35:41;;;;;;;4.35;1.58;;;;;;;;;;6062336;23;20013;-50
2022/03/12 12:38:10;;;;;;;8.00;1.48;;;;;;;;;;6064764;23;20042;-47
2022/03/12 12:40:47;;;;;;;3.30;1.05;;;;;;;;;;6061208;23;20508;-47
2022/03/12 12:43:14;;;;;;;3.63;1.48;;;;;;;;;;6057792;23;20040;-49
2022/03/12 12:46:05;;;;;;;4.65;1.08;;;;;;;;;;6057288;23;20042;-47
2022/03/12 12:48:30;;;;;;;3.92;1.10;;;;;;;;;;6042131;23;20031;-52
2022/03/12 12:51:06;;;;;;;5.35;2.75;;;;;;;;;;6060675;23;20015;-50
2022/03/12 12:53:51;;;;;;;5.00;1.42;;;;;;;;;;6060454;23;20023;-50
2022/03/12 12:56:30;;;;;;;6.90;1.45;;;;;;;;;;6031830;23;20010;-51
2022/03/12 12:58:58;;;;;;;3.42;0.93;;;;;;;;;;6061045;23;20031;-50
2022/03/12 13:01:29;;;;;;;4.60;1.60;;;;;;;;;;6059909;23;20027;-51
2022/03/12 13:03:55;;;;;;;6.80;1.52;;;;;;;;;;6061933;23;20018;-53
2022/03/12 13:06:35;;;;;;;3.45;1.58;;;;;;;;;;6060218;23;20029;-47
2022/03/12 13:09:04;;;;;;;7.03;1.55;;;;;;;;;;6063256;23;20015;-50
2022/03/12 13:11:33;;;;;;;5.93;1.85;;;;;;;;;;6037052;23;20030;-54
2022/03/12 13:13:59;;;;;;;9.40;1.65;;;;;;;;;;6063260;23;20082;-52
2022/03/12 13:16:25;;;;;;;4.43;1.20;;;;;;;;;;6062912;23;20746;-52
2022/03/12 13:18:50;;;;;;;4.53;1.20;;;;;;;;;;6062406;23;20022;-49
2022/03/12 13:21:26;;;;;;;9.15;1.77;;;;;;;;;;6063855;23;20015;-47
2022/03/12 13:23:51;;;;;;;5.90;1.45;;;;;;;;;;6059882;23;20015;-51
2022/03/12 13:26:17;;;;;;;5.82;1.70;;;;;;;;;;6058764;23;20015;-51
2022/03/12 13:28:49;;;;;;;5.90;1.50;;;;;;;;;;6064320;23;20015;-53
2022/03/12 13:31:19;;;;;;;6.32;1.30;;;;;;;;;;6058933;23;20087;-52
2022/03/12 13:33:45;;;;;;;6.25;1.40;;;;;;;;;;6066644;23;20396;-49
2022/03/12 13:36:18;;;;;;;5.15;1.25;;;;;;;;;;6064155;23;20012;-53
2022/03/12 13:38:44;;;;;;;4.43;1.45;;;;;;;;;;6066552;23;20022;-49
2022/03/12 13:41:18;;;;;;;11.50;1.92;;;;;;;;;;6061620;23;20810;-51
2022/03/12 13:43:44;;;;;;;5.85;1.63;;;;;;;;;;6063778;23;20528;-49
2022/03/12 13:46:10;;;;;;;3.55;1.20;;;;;;;;;;6064412;23;20114;-50
2022/03/12 13:48:36;;;;;;;5.60;1.52;;;;;;;;;;6065994;23;20007;-49
2022/03/12 13:51:01;;;;;;;7.32;1.33;;;;;;;;;;6063386;23;20019;-49
2022/03/12 13:53:30;;;;;;;4.38;1.67;;;;;;;;;;6066927;23;20006;-49
2022/03/12 13:56:05;;;;;;;12.43;1.80;;;;;;;;;;6064127;23;20078;-49
2022/03/12 13:58:31;;;;;;;4.05;1.95;;;;;;;;;;6063195;23;20038;-52
2022/03/12 14:01:00;;;;;;;6.15;2.30;;;;;;;;;;6066913;23;20221;-47
2022/03/12 14:03:29;;;;;;;3.42;2.10;;;;;;;;;;6065038;23;20890;-49
2022/03/12 14:05:54;;;;;;;;;;;;;;;;;;6067222;23;20019;-49
2022/03/12 14:08:22;;;;;;;4.27;1.63;;;;;;;;;;6063895;23;19914;-48
2022/03/12 14:10:49;;;;;;;4.93;1.65;;;;;;;;;;6065904;23;20237;-50
2022/03/12 14:13:16;;;;;;;8.52;1.55;;;;;;;;;;6063074;23;20030;-48
2022/03/12 14:15:41;;;;;;;7.38;1.90;;;;;;;;;;6065459;23;20007;-50
2022/03/12 14:18:07;;;;;;;9.52;2.33;;;;;;;;;;6066767;23;20042;-49
2022/03/12 14:20:36;;;;;;;13.70;1.50;;;;;;;;;;6063111;23;20015;-52
2022/03/12 14:23:02;;;;;;;9.73;1.73;;;;;;;;;;6065765;23;20061;-47
2022/03/12 14:25:28;;;;;;;9.93;1.90;;;;;;;;;;6041371;23;20019;-49
2022/03/12 14:27:53;;;;;;;4.25;2.55;;;;;;;;;;6066453;23;20135;-48
2022/03/12 14:30:19;;;;;;;5.93;1.50;;;;;;;;;;6065286;23;20022;-48
2022/03/12 14:32:45;;;;;;;6.53;1.20;;;;;;;;;;6066175;23;20030;-51
2022/03/12 14:35:10;;;;;;;8.10;2.47;;;;;;;;;;6066289;23;20071;-50
2022/03/12 14:37:36;;;;;;;4.10;1.30;;;;;;;;;;6065222;23;20030;-49
2022/03/12 14:40:04;;;;;;;7.50;1.60;;;;;;;;;;6066367;23;20018;-49
2022/03/12 14:42:31;;;;;;;7.75;1.60;;;;;;;;;;6063696;23;20610;-53